Pagina principale
METAR-TAF:

METAR-TAF

Aeroporti :

Mannheim, Germania

latitudine: 49-28-21N, longitudine: 008-30-56E, altezza: 100 m

Osservazione

Il bollettino è stato emesso 55 minuti fa, alle 19:20 UTC
Vento 3 kt da nord/nord-est
Temperature 32°C
Umidità 43%
Pressione 1020 hPa
Visibilità 10 km o più
nessuna nube inferiore a 1500 m e nessun cumulonembo

METAR: EDFM 261920Z 03003KT CAVOK 32/18 Q1020

Ora: 22:15 (20:15 UTC)

Previsione

Il bollettino è stato emesso 3 ore e 15 minuti fa, alle 17:00 UTC
Previsione valida dal 26 alle 18 UTC al 26 alle 21 UTC
Vento 5 kt da nord
Visibilità 10 km o più
nessuna nube inferiore a 1500 m e nessun cumulonembo

TAF: EDFM 261700Z 2618/2621 35005KT CAVOK

Osservazioni e previsioni meteorologiche di più di 4000 aeroporti (messaggi METAR e TAF).

Le stazioni disponibili sono rappresentate dai dischi gialli e rossi sulla carta.

Puntare il mouse per vedere il nome della stazione.

Clicca sopra per visualizzare le osservazioni e previsioni meteorologiche.

Per cambiare la mappa : fare clic sui pulsanti verdi con una croce nera per ingrandire, il pulsante verde con un trattino per diminuire, o sulla freccia verde per le mappe adiacenti.


METAR-TAF: